createdAt,value
2018-03-23T00:00:07.164Z,6.39
2018-03-23T00:01:07.145Z,6.42
2018-03-23T00:02:07.111Z,6.41
2018-03-23T00:03:07.091Z,6.38
2018-03-23T00:04:07.058Z,6.36
2018-03-23T00:05:07.034Z,6.38
2018-03-23T00:06:07.000Z,6.30
2018-03-23T00:07:06.982Z,6.35
2018-03-23T00:08:06.960Z,6.36
2018-03-23T00:09:06.926Z,6.31
2018-03-23T00:10:06.896Z,6.39
2018-03-23T00:11:06.866Z,6.41
2018-03-23T00:12:06.837Z,6.39
2018-03-23T00:13:06.843Z,6.27
2018-03-23T00:14:06.785Z,6.35
2018-03-23T00:15:06.765Z,6.33
2018-03-23T00:16:06.754Z,6.33
2018-03-23T00:17:06.702Z,6.35
2018-03-23T00:18:06.682Z,6.33
2018-03-23T00:19:06.674Z,6.35
2018-03-23T00:20:06.626Z,6.39
2018-03-23T00:21:06.598Z,6.31
2018-03-23T00:22:06.574Z,6.33
2018-03-23T00:23:06.534Z,6.27
2018-03-23T00:24:06.515Z,6.30
2018-03-23T00:25:06.481Z,6.33
2018-03-23T00:26:06.453Z,6.31
2018-03-23T00:27:06.431Z,6.35
2018-03-23T00:28:06.407Z,6.33
2018-03-23T00:29:06.368Z,6.35
2018-03-23T00:30:06.353Z,6.27
2018-03-23T00:31:06.321Z,6.31
2018-03-23T00:32:06.296Z,6.35
2018-03-23T00:33:06.268Z,6.31
2018-03-23T00:34:06.236Z,6.31
2018-03-23T00:35:06.209Z,6.35
2018-03-23T00:36:06.185Z,6.33
2018-03-23T00:37:06.158Z,6.39
2018-03-23T00:38:06.138Z,6.41
2018-03-23T00:39:06.107Z,6.39
2018-03-23T00:40:06.076Z,6.33
2018-03-23T00:41:06.051Z,6.35
2018-03-23T00:42:06.023Z,6.41
2018-03-23T00:43:05.992Z,6.41
2018-03-23T00:44:05.965Z,6.46
2018-03-23T00:45:05.945Z,6.39
2018-03-23T00:46:05.909Z,6.39
2018-03-23T00:47:05.882Z,6.51
2018-03-23T00:48:05.864Z,6.54
2018-03-23T00:49:05.827Z,6.41
2018-03-23T00:50:05.806Z,6.35
2018-03-23T00:51:05.775Z,6.35
2018-03-23T00:52:05.749Z,6.36
2018-03-23T00:53:05.725Z,6.36
2018-03-23T00:54:05.699Z,6.38
2018-03-23T00:55:05.669Z,6.35
2018-03-23T00:56:05.637Z,6.41
2018-03-23T00:57:05.609Z,6.39
2018-03-23T00:58:05.587Z,6.35
2018-03-23T00:59:05.557Z,6.45
2018-03-23T01:00:05.530Z,6.45
2018-03-23T01:01:05.501Z,6.51
2018-03-23T01:02:05.481Z,6.48
2018-03-23T01:03:05.450Z,6.41
2018-03-23T01:04:05.426Z,6.46
2018-03-23T01:05:05.397Z,6.44
2018-03-23T01:06:05.365Z,6.38
2018-03-23T01:07:05.337Z,6.48
2018-03-23T01:08:05.312Z,6.51
2018-03-23T01:09:05.287Z,6.45
2018-03-23T01:10:05.255Z,6.49
2018-03-23T01:11:05.229Z,6.45
2018-03-23T01:12:05.208Z,6.42
2018-03-23T01:13:05.175Z,6.49
2018-03-23T01:14:05.148Z,6.54
2018-03-23T01:15:05.124Z,6.46
2018-03-23T01:16:05.094Z,6.48
2018-03-23T01:17:05.070Z,6.44
2018-03-23T01:18:05.041Z,6.54
2018-03-23T01:19:05.016Z,6.49
2018-03-23T01:20:04.996Z,6.51
2018-03-23T01:21:04.958Z,6.48
2018-03-23T01:22:04.936Z,6.54
2018-03-23T01:23:04.897Z,6.49
2018-03-23T01:24:04.873Z,6.45
2018-03-23T01:25:04.852Z,6.49
2018-03-23T01:26:04.823Z,6.51
2018-03-23T01:27:04.788Z,6.42
2018-03-23T01:28:04.772Z,6.45
2018-03-23T01:29:04.740Z,6.42
2018-03-23T01:30:04.708Z,6.39
2018-03-23T01:31:04.689Z,6.52
2018-03-23T01:32:04.661Z,6.51
2018-03-23T01:33:04.627Z,6.46
2018-03-23T01:34:04.602Z,6.59
2018-03-23T01:35:04.574Z,6.60
2018-03-23T01:36:04.550Z,6.56
2018-03-23T01:37:04.523Z,6.45
2018-03-23T01:38:04.494Z,6.59
2018-03-23T01:39:04.475Z,6.54
2018-03-23T01:40:04.442Z,6.57
2018-03-23T01:41:04.422Z,6.60
2018-03-23T01:42:04.390Z,6.57
2018-03-23T01:43:04.361Z,6.66
2018-03-23T01:44:04.329Z,6.60
2018-03-23T01:45:04.309Z,6.63
2018-03-23T01:46:04.278Z,6.64
2018-03-23T01:47:04.260Z,6.59
2018-03-23T01:48:04.225Z,6.60
2018-03-23T01:49:04.200Z,6.72
2018-03-23T01:50:04.171Z,6.72
2018-03-23T01:51:04.139Z,6.79
2018-03-23T01:52:04.122Z,6.78
2018-03-23T01:53:04.087Z,6.77
2018-03-23T01:54:04.062Z,6.72
2018-03-23T01:55:04.029Z,6.72
2018-03-23T01:56:04.005Z,6.78
2018-03-23T01:57:03.981Z,6.75
2018-03-23T01:58:03.947Z,6.85
2018-03-23T01:59:03.926Z,6.81
2018-03-23T02:00:03.900Z,6.82
2018-03-23T02:01:03.881Z,6.82
2018-03-23T02:02:03.840Z,6.79
2018-03-23T02:03:03.813Z,6.79
2018-03-23T02:04:03.783Z,6.78
2018-03-23T02:05:03.763Z,6.74
2018-03-23T02:06:03.734Z,6.74
2018-03-23T02:07:03.704Z,6.78
2018-03-23T02:08:03.679Z,6.79
2018-03-23T02:09:03.650Z,6.81
2018-03-23T02:10:03.639Z,6.89
2018-03-23T02:11:03.603Z,6.88
2018-03-23T02:12:03.571Z,6.87
2018-03-23T02:13:03.552Z,6.93
2018-03-23T02:14:03.521Z,6.96
2018-03-23T02:15:03.487Z,6.87
2018-03-23T02:16:03.469Z,6.92
2018-03-23T02:17:03.438Z,6.89
2018-03-23T02:18:03.408Z,6.93
2018-03-23T02:19:03.384Z,6.95
2018-03-23T02:20:03.349Z,6.87
2018-03-23T02:21:03.331Z,6.92
2018-03-23T02:22:03.303Z,6.87
2018-03-23T02:23:03.278Z,6.87
2018-03-23T02:24:03.245Z,6.88
2018-03-23T02:25:03.226Z,6.84
2018-03-23T02:26:03.195Z,6.84
2018-03-23T02:27:03.161Z,6.88
2018-03-23T02:28:03.138Z,6.88
2018-03-23T02:29:03.112Z,6.87
2018-03-23T02:30:03.092Z,6.84
2018-03-23T02:31:03.051Z,6.93
2018-03-23T02:32:03.037Z,6.82
2018-03-23T02:33:02.999Z,6.88
2018-03-23T02:34:02.972Z,6.89
2018-03-23T02:35:02.951Z,6.85
2018-03-23T02:36:02.919Z,6.88
2018-03-23T02:37:02.897Z,6.89
2018-03-23T02:38:02.861Z,6.85
2018-03-23T02:39:02.844Z,6.79
2018-03-23T02:40:02.818Z,6.85
2018-03-23T02:41:02.780Z,6.84
2018-03-23T02:42:02.765Z,6.89
2018-03-23T02:43:02.735Z,6.93
2018-03-23T02:44:02.705Z,7.06
2018-03-23T02:45:02.679Z,6.92
2018-03-23T02:46:02.655Z,6.96
2018-03-23T02:47:02.619Z,7.05
2018-03-23T02:48:02.595Z,7.02
2018-03-23T02:49:02.576Z,6.93
2018-03-23T02:50:02.544Z,7.02
2018-03-23T02:51:02.522Z,6.97
2018-03-23T02:52:02.483Z,6.95
2018-03-23T02:53:02.459Z,6.84
2018-03-23T02:54:02.442Z,6.87
2018-03-23T02:55:02.472Z,6.88
2018-03-23T02:56:02.377Z,6.84
2018-03-23T02:57:02.351Z,6.82
2018-03-23T02:58:02.324Z,6.87
2018-03-23T02:59:02.299Z,6.88
2018-03-23T03:00:02.270Z,6.92
2018-03-23T03:01:02.245Z,6.89
2018-03-23T03:02:02.212Z,6.93
2018-03-23T03:03:02.286Z,6.93
2018-03-23T03:04:02.168Z,6.95
2018-03-23T03:05:02.129Z,6.85
2018-03-23T03:06:02.123Z,6.85
2018-03-23T03:07:02.075Z,6.87
2018-03-23T03:08:02.051Z,6.95
2018-03-23T03:09:02.030Z,6.82
2018-03-23T03:10:02.007Z,6.89
2018-03-23T03:11:01.973Z,6.79
2018-03-23T03:12:01.948Z,6.70
2018-03-23T03:13:01.987Z,6.74
2018-03-23T03:14:01.898Z,6.79
2018-03-23T03:15:01.858Z,6.81
2018-03-23T03:16:01.844Z,6.82
2018-03-23T03:17:01.812Z,6.89
2018-03-23T03:18:01.785Z,6.88
2018-03-23T03:19:01.752Z,6.87
2018-03-23T03:20:01.724Z,6.89
2018-03-23T03:21:01.706Z,6.92
2018-03-23T03:22:01.666Z,6.87
2018-03-23T03:23:01.649Z,6.93
2018-03-23T03:24:01.614Z,6.92
2018-03-23T03:25:01.594Z,6.84
2018-03-23T03:26:01.564Z,6.93
2018-03-23T03:27:01.542Z,6.92
2018-03-23T03:28:01.514Z,6.88
2018-03-23T03:29:01.479Z,6.89
2018-03-23T03:30:01.456Z,6.95
2018-03-23T03:31:01.429Z,6.96
2018-03-23T03:32:01.412Z,6.87
2018-03-23T03:33:01.370Z,6.92
2018-03-23T03:34:01.356Z,6.93
2018-03-23T03:35:01.315Z,6.95
2018-03-23T03:36:01.299Z,6.93
2018-03-23T03:37:01.276Z,6.88
2018-03-23T03:38:01.244Z,6.95
2018-03-23T03:39:01.221Z,6.82
2018-03-23T03:40:01.189Z,6.89
2018-03-23T03:41:01.161Z,6.79
2018-03-23T03:42:01.132Z,6.82
2018-03-23T03:43:01.153Z,6.81
2018-03-23T03:44:01.073Z,6.78
2018-03-23T03:45:01.051Z,6.77
2018-03-23T03:46:01.024Z,6.79
2018-03-23T03:47:00.994Z,6.81
2018-03-23T03:48:00.965Z,6.79
2018-03-23T03:49:00.939Z,6.74
2018-03-23T03:50:00.912Z,6.77
2018-03-23T03:51:00.889Z,6.79
2018-03-23T03:52:00.859Z,6.81
2018-03-23T03:53:00.832Z,6.81
2018-03-23T03:54:00.814Z,6.78
2018-03-23T03:55:00.772Z,6.78
2018-03-23T03:56:00.755Z,6.81
2018-03-23T03:57:00.720Z,6.75
2018-03-23T03:58:00.695Z,6.70
2018-03-23T03:59:00.673Z,6.75
2018-03-23T04:00:00.638Z,6.77
2018-03-23T04:01:00.616Z,6.82
2018-03-23T04:02:00.585Z,6.67
2018-03-23T04:03:00.556Z,6.74
2018-03-23T04:04:00.538Z,6.84
2018-03-23T04:05:00.508Z,6.78
2018-03-23T04:06:00.478Z,6.77
2018-03-23T04:07:00.449Z,6.81
2018-03-23T04:08:00.418Z,6.81
2018-03-23T04:09:00.396Z,6.79
2018-03-23T04:10:00.368Z,6.75
2018-03-23T04:11:00.353Z,6.79
2018-03-23T04:12:00.314Z,6.81
2018-03-23T04:13:00.285Z,6.77
2018-03-23T04:14:00.261Z,6.79
2018-03-23T04:15:00.232Z,6.81
2018-03-23T04:16:00.203Z,6.82
2018-03-23T04:17:00.180Z,6.75
2018-03-23T04:18:00.155Z,6.78
2018-03-23T04:19:00.118Z,6.70
2018-03-23T04:20:00.097Z,6.75
2018-03-23T04:21:00.065Z,6.64
2018-03-23T04:22:00.047Z,6.77
2018-03-23T04:23:00.078Z,6.78
2018-03-23T04:23:59.990Z,6.72
2018-03-23T04:24:59.957Z,6.74
2018-03-23T04:25:59.930Z,6.69
2018-03-23T04:26:59.898Z,6.74
2018-03-23T04:27:59.877Z,6.72
2018-03-23T04:28:59.858Z,6.62
2018-03-23T04:29:59.823Z,6.66
2018-03-23T04:30:59.798Z,6.66
2018-03-23T04:31:59.773Z,6.64
2018-03-23T04:32:59.742Z,6.72
2018-03-23T04:33:59.713Z,6.60
2018-03-23T04:34:59.683Z,6.64
2018-03-23T04:35:59.658Z,6.60
2018-03-23T04:36:59.635Z,6.63
2018-03-23T04:37:59.606Z,6.69
2018-03-23T04:38:59.576Z,6.64
2018-03-23T04:39:59.548Z,6.72
2018-03-23T04:40:59.529Z,6.64
2018-03-23T04:41:59.496Z,6.63
2018-03-23T04:42:59.468Z,6.59
2018-03-23T04:43:59.444Z,6.63
2018-03-23T04:44:59.408Z,6.69
2018-03-23T04:45:59.389Z,6.70
2018-03-23T04:46:59.364Z,6.74
2018-03-23T04:47:59.324Z,6.69
2018-03-23T04:48:59.309Z,6.63
2018-03-23T04:49:59.278Z,6.66
2018-03-23T04:50:59.248Z,6.63
2018-03-23T04:51:59.225Z,6.60
2018-03-23T04:52:59.198Z,6.64
2018-03-23T04:53:59.169Z,6.62
2018-03-23T04:54:59.150Z,6.62
2018-03-23T04:55:59.107Z,6.60
2018-03-23T04:56:59.086Z,6.62
2018-03-23T04:57:59.066Z,6.57
2018-03-23T04:58:59.030Z,6.57
2018-03-23T04:59:58.998Z,6.46
2018-03-23T05:00:58.984Z,6.60
2018-03-23T05:01:58.950Z,6.45
2018-03-23T05:02:58.928Z,6.49
2018-03-23T05:03:58.901Z,6.42
2018-03-23T05:04:58.865Z,6.44
2018-03-23T05:05:58.847Z,6.42
2018-03-23T05:06:58.813Z,6.51
2018-03-23T05:07:58.799Z,6.49
2018-03-23T05:08:58.758Z,6.51
2018-03-23T05:09:58.733Z,6.49
2018-03-23T05:10:58.700Z,6.48
2018-03-23T05:11:58.702Z,6.44
2018-03-23T05:12:58.651Z,6.44
2018-03-23T05:13:58.625Z,6.48
2018-03-23T05:14:58.595Z,6.52
2018-03-23T05:15:58.566Z,6.51
2018-03-23T05:16:58.538Z,6.46
2018-03-23T05:17:58.519Z,6.45
2018-03-23T05:18:58.486Z,6.45
2018-03-23T05:19:58.454Z,6.45
2018-03-23T05:20:58.434Z,6.46
2018-03-23T05:21:58.400Z,6.36
2018-03-23T05:22:58.378Z,6.39
2018-03-23T05:23:58.341Z,6.36
2018-03-23T05:24:58.327Z,6.36
2018-03-23T05:25:58.294Z,6.33
2018-03-23T05:26:58.268Z,6.42
2018-03-23T05:27:58.234Z,6.41
2018-03-23T05:28:58.206Z,6.46
2018-03-23T05:29:58.187Z,6.48
2018-03-23T05:30:58.154Z,6.45
2018-03-23T05:31:58.121Z,6.42
2018-03-23T05:32:58.107Z,6.41
2018-03-23T05:33:58.072Z,6.46
2018-03-23T05:34:58.042Z,6.39
2018-03-23T05:35:58.020Z,6.39
2018-03-23T05:36:57.994Z,6.30
2018-03-23T05:37:57.972Z,6.45
2018-03-23T05:38:57.930Z,6.35
2018-03-23T05:39:57.903Z,6.48
2018-03-23T05:40:57.884Z,6.48
2018-03-23T05:41:57.860Z,6.54
2018-03-23T05:42:57.828Z,6.46
2018-03-23T05:43:57.819Z,6.35
2018-03-23T05:44:57.771Z,6.39
2018-03-23T05:45:57.748Z,6.36
2018-03-23T05:46:57.720Z,6.36
2018-03-23T05:47:57.694Z,6.33
2018-03-23T05:48:57.660Z,6.28
2018-03-23T05:49:57.637Z,6.36
2018-03-23T05:50:57.624Z,6.27
2018-03-23T05:51:57.571Z,6.26
2018-03-23T05:52:57.561Z,6.28
2018-03-23T05:53:57.528Z,6.26
2018-03-23T05:54:57.495Z,6.30
2018-03-23T05:55:57.463Z,6.22
2018-03-23T05:56:57.450Z,6.19
2018-03-23T05:57:57.414Z,6.31
2018-03-23T05:58:57.390Z,6.26
2018-03-23T05:59:57.382Z,6.28
2018-03-23T06:00:57.325Z,6.19
2018-03-23T06:01:57.302Z,6.22
2018-03-23T06:02:57.277Z,6.19
2018-03-23T06:03:57.247Z,6.17
2018-03-23T06:04:57.233Z,6.24
2018-03-23T06:05:57.200Z,6.33
2018-03-23T06:06:57.177Z,6.16
2018-03-23T06:07:57.143Z,6.12
2018-03-23T06:08:57.107Z,6.08
2018-03-23T06:09:57.093Z,6.08
2018-03-23T06:10:57.055Z,6.08
2018-03-23T06:11:57.039Z,6.08
2018-03-23T06:12:57.007Z,6.08
2018-03-23T06:13:56.980Z,6.11
2018-03-23T06:14:56.950Z,6.16
2018-03-23T06:15:56.926Z,6.26
2018-03-23T06:16:56.897Z,6.09
2018-03-23T06:17:56.867Z,6.16
2018-03-23T06:18:56.839Z,6.16
2018-03-23T06:19:56.810Z,6.14
2018-03-23T06:20:56.786Z,6.11
2018-03-23T06:21:56.761Z,6.11
2018-03-23T06:22:56.733Z,6.14
2018-03-23T06:23:56.703Z,6.08
2018-03-23T06:24:56.681Z,6.12
2018-03-23T06:25:56.646Z,6.19
2018-03-23T06:26:56.626Z,6.09
2018-03-23T06:27:56.620Z,6.16
2018-03-23T06:28:56.560Z,6.12
2018-03-23T06:29:56.543Z,6.08
2018-03-23T06:30:56.506Z,6.19
2018-03-23T06:31:56.500Z,6.08
2018-03-23T06:32:56.489Z,6.08
2018-03-23T06:33:56.436Z,6.09
2018-03-23T06:34:56.403Z,6.12
2018-03-23T06:35:56.370Z,6.05
2018-03-23T06:36:56.398Z,5.98
2018-03-23T06:37:56.491Z,5.94
2018-03-23T06:38:56.358Z,6.05
2018-03-23T06:39:56.283Z,5.99
2018-03-23T06:40:56.242Z,6.11
2018-03-23T06:41:56.215Z,6.11
2018-03-23T06:42:56.180Z,5.99
2018-03-23T06:43:56.165Z,5.99
2018-03-23T06:44:56.126Z,6.07
2018-03-23T06:45:56.097Z,6.01
2018-03-23T06:46:56.074Z,6.01
2018-03-23T06:47:56.056Z,6.02
2018-03-23T06:48:56.020Z,6.11
2018-03-23T06:49:55.986Z,5.93
2018-03-23T06:50:55.959Z,6.05
2018-03-23T06:51:55.939Z,5.87
2018-03-23T06:52:55.907Z,6.04
2018-03-23T06:53:55.873Z,6.02
2018-03-23T06:54:55.859Z,5.97
2018-03-23T06:55:55.819Z,5.87
2018-03-23T06:56:55.801Z,5.89
2018-03-23T06:57:55.774Z,6.04
2018-03-23T06:58:55.732Z,6.07
2018-03-23T06:59:55.716Z,5.99
2018-03-23T07:00:55.685Z,6.02
2018-03-23T07:01:55.665Z,6.04
2018-03-23T07:02:55.635Z,6.02
2018-03-23T07:03:55.604Z,6.08
2018-03-23T07:04:55.583Z,6.01
2018-03-23T07:05:55.549Z,5.99
2018-03-23T07:06:55.519Z,6.09
2018-03-23T07:07:55.490Z,5.99
2018-03-23T07:08:55.486Z,6.09
2018-03-23T07:09:55.449Z,6.08
2018-03-23T07:10:55.469Z,6.12
2018-03-23T07:11:55.389Z,6.14
2018-03-23T07:12:55.357Z,6.17
2018-03-23T07:13:55.329Z,6.14
2018-03-23T07:14:55.304Z,6.11
2018-03-23T07:15:55.269Z,6.09
2018-03-23T07:16:55.251Z,6.19
2018-03-23T07:17:55.224Z,6.22
2018-03-23T07:18:55.199Z,6.11
2018-03-23T07:19:55.167Z,6.19
2018-03-23T07:20:55.199Z,6.11
2018-03-23T07:21:55.121Z,6.12
2018-03-23T07:22:55.077Z,6.16
2018-03-23T07:23:55.138Z,6.26
2018-03-23T07:24:55.024Z,6.26
2018-03-23T07:25:55.000Z,6.27
2018-03-23T07:26:54.977Z,6.19
2018-03-23T07:27:54.999Z,6.20
2018-03-23T07:28:54.929Z,6.11
2018-03-23T07:29:54.897Z,6.12
2018-03-23T07:30:54.905Z,6.11
2018-03-23T07:31:54.843Z,6.12
2018-03-23T07:32:54.853Z,6.17
2018-03-23T07:33:54.785Z,6.05
2018-03-23T07:34:54.750Z,6.12
2018-03-23T07:35:54.728Z,6.07
2018-03-23T07:36:54.740Z,6.12
2018-03-23T07:37:54.670Z,6.16
2018-03-23T07:38:54.642Z,6.20
2018-03-23T07:39:54.622Z,6.19
2018-03-23T07:40:54.585Z,6.14
2018-03-23T07:41:54.626Z,6.12
2018-03-23T07:42:54.530Z,6.14
2018-03-23T07:43:54.563Z,6.04
2018-03-23T07:44:54.554Z,6.16
2018-03-23T07:45:54.454Z,6.08
2018-03-23T07:46:54.427Z,6.16
2018-03-23T07:47:54.398Z,6.17
2018-03-23T07:48:54.443Z,6.30
2018-03-23T07:49:54.340Z,6.26
2018-03-23T07:50:54.323Z,6.31
2018-03-23T07:51:54.291Z,6.35
2018-03-23T07:52:54.266Z,6.39
2018-03-23T07:53:54.241Z,6.51
2018-03-23T07:54:54.206Z,6.49
2018-03-23T07:55:54.243Z,6.57
2018-03-23T07:56:54.152Z,6.49
2018-03-23T07:57:54.120Z,6.60
2018-03-23T07:58:54.167Z,6.64
2018-03-23T07:59:54.072Z,6.62
2018-03-23T08:00:54.047Z,6.64
2018-03-23T08:01:54.076Z,6.66
2018-03-23T08:02:53.997Z,6.82
2018-03-23T08:03:53.966Z,6.74
2018-03-23T08:04:53.972Z,6.74
2018-03-23T08:05:53.987Z,6.85
2018-03-23T08:06:53.893Z,6.85
2018-03-23T08:07:53.848Z,6.89
2018-03-23T08:08:53.900Z,6.77
2018-03-23T08:09:53.842Z,6.75
2018-03-23T08:10:53.799Z,6.74
2018-03-23T08:11:53.778Z,6.75
2018-03-23T08:12:53.771Z,6.69
2018-03-23T08:13:53.698Z,6.72
2018-03-23T08:14:53.661Z,6.77
2018-03-23T08:15:53.637Z,6.75
2018-03-23T08:16:53.632Z,6.77
2018-03-23T08:17:53.578Z,6.75
2018-03-23T08:18:53.562Z,6.67
2018-03-23T08:19:53.574Z,6.75
2018-03-23T08:20:53.502Z,6.57
2018-03-23T08:21:53.479Z,6.74
2018-03-23T08:22:53.453Z,6.75
2018-03-23T08:23:53.510Z,6.72
2018-03-23T08:24:53.466Z,6.75
2018-03-23T08:25:53.377Z,6.82
2018-03-23T08:26:53.340Z,6.75
2018-03-23T08:27:53.345Z,6.81
2018-03-23T08:28:53.346Z,6.81
2018-03-23T08:29:53.287Z,6.81
2018-03-23T08:30:53.311Z,6.96
2018-03-23T08:31:53.243Z,7.11
2018-03-23T08:32:53.180Z,7.15
2018-03-23T08:33:53.159Z,7.11
2018-03-23T08:34:53.124Z,7.17
2018-03-23T08:35:53.107Z,7.03
2018-03-23T08:36:53.147Z,7.05
2018-03-23T08:37:53.039Z,7.03
2018-03-23T08:38:53.020Z,7.06
2018-03-23T08:39:52.992Z,7.06
2018-03-23T08:40:52.977Z,7.06
2018-03-23T08:41:52.952Z,7.02
2018-03-23T08:42:52.912Z,7.06
2018-03-23T08:43:52.894Z,7.07
2018-03-23T08:44:52.892Z,7.07
2018-03-23T08:45:52.830Z,7.11
2018-03-23T08:46:52.792Z,7.10
2018-03-23T08:47:52.771Z,7.10
2018-03-23T08:48:52.748Z,7.07
2018-03-23T08:49:52.717Z,7.18
2018-03-23T08:50:52.737Z,7.20
2018-03-23T08:51:52.660Z,7.21
2018-03-23T08:52:52.702Z,7.18
2018-03-23T08:53:52.620Z,7.28
2018-03-23T08:54:53.199Z,7.43
2018-03-23T08:55:52.598Z,7.51
2018-03-23T08:56:52.528Z,7.40
2018-03-23T08:57:52.518Z,7.50
2018-03-23T08:58:52.475Z,7.40
2018-03-23T08:59:52.444Z,7.51
2018-03-23T09:00:52.431Z,7.48
2018-03-23T09:01:52.395Z,7.53
2018-03-23T09:02:52.373Z,7.54
2018-03-23T09:03:52.439Z,7.58
2018-03-23T09:04:52.391Z,7.66
2018-03-23T09:05:52.288Z,7.66
2018-03-23T09:06:52.263Z,7.66
2018-03-23T09:07:52.244Z,7.72
2018-03-23T09:08:52.203Z,7.80
2018-03-23T09:09:52.231Z,7.87
2018-03-23T09:10:52.198Z,7.77
2018-03-23T09:11:52.185Z,7.77
2018-03-23T09:12:52.236Z,7.80
2018-03-23T09:13:52.145Z,7.76
2018-03-23T09:14:52.070Z,8.00
2018-03-23T09:15:52.025Z,7.88
2018-03-23T09:16:52.117Z,7.95
2018-03-23T09:17:51.983Z,7.93
2018-03-23T09:18:51.940Z,7.83
2018-03-23T09:19:51.932Z,7.75
2018-03-23T09:20:51.937Z,7.73
2018-03-23T09:21:51.906Z,7.82
2018-03-23T09:22:51.837Z,7.85
2018-03-23T09:23:51.918Z,8.01
2018-03-23T09:24:51.792Z,8.09
2018-03-23T09:25:51.763Z,8.16
2018-03-23T09:26:51.820Z,8.16
2018-03-23T09:27:51.736Z,8.10
2018-03-23T09:28:51.727Z,8.23
2018-03-23T09:29:51.714Z,8.27
2018-03-23T09:30:51.622Z,8.00
2018-03-23T09:31:51.631Z,7.91
2018-03-23T09:32:51.577Z,7.88
2018-03-23T09:33:51.577Z,8.00
2018-03-23T09:34:51.525Z,8.01
2018-03-23T09:35:51.552Z,8.01
2018-03-23T09:36:51.526Z,8.03
2018-03-23T09:37:51.445Z,8.00
2018-03-23T09:38:51.554Z,7.85
2018-03-23T09:39:51.449Z,7.82
2018-03-23T09:40:51.366Z,7.95
2018-03-23T09:41:51.337Z,8.12
2018-03-23T09:42:51.307Z,8.06
2018-03-23T09:43:51.286Z,8.05
2018-03-23T09:44:51.317Z,7.93
2018-03-23T09:45:51.222Z,8.05
2018-03-23T09:46:51.207Z,8.00
2018-03-23T09:47:51.299Z,7.94
2018-03-23T09:48:51.151Z,7.91
2018-03-23T09:49:51.180Z,7.87
2018-03-23T09:50:51.157Z,7.91
2018-03-23T09:51:51.144Z,7.87
2018-03-23T09:52:51.043Z,7.85
2018-03-23T09:53:51.023Z,7.91
2018-03-23T09:54:50.988Z,8.00
2018-03-23T09:55:51.005Z,8.00
2018-03-23T09:56:50.938Z,8.12
2018-03-23T09:57:50.908Z,8.16
2018-03-23T09:58:50.953Z,8.45
2018-03-23T09:59:50.852Z,8.41
2018-03-23T10:00:50.829Z,8.44
2018-03-23T10:01:50.812Z,8.51
2018-03-23T10:02:50.817Z,8.67
2018-03-23T10:03:50.911Z,8.70
2018-03-23T10:04:50.731Z,8.51
2018-03-23T10:05:50.728Z,8.52
2018-03-23T10:06:50.743Z,8.69
2018-03-23T10:07:50.648Z,8.85
2018-03-23T10:08:50.622Z,8.91
2018-03-23T10:09:50.665Z,8.89
2018-03-23T10:10:50.623Z,8.91
2018-03-23T10:11:50.584Z,8.88
2018-03-23T10:12:50.556Z,8.89
2018-03-23T10:13:50.497Z,8.82
2018-03-23T10:14:50.540Z,8.89
2018-03-23T10:15:50.503Z,8.95
2018-03-23T10:16:50.514Z,9.02
2018-03-23T10:17:50.421Z,9.08
2018-03-23T10:18:50.431Z,9.19
2018-03-23T10:19:50.380Z,9.32
2018-03-23T10:20:50.305Z,9.41
2018-03-23T10:21:50.288Z,9.41
2018-03-23T10:22:50.252Z,9.48
2018-03-23T10:23:50.291Z,9.32
2018-03-23T10:24:50.215Z,9.32
2018-03-23T10:25:50.179Z,9.29
2018-03-23T10:26:50.212Z,9.22
2018-03-23T10:27:50.209Z,9.13
2018-03-23T10:28:50.134Z,9.03
2018-03-23T10:29:50.184Z,9.11
2018-03-23T10:30:50.133Z,9.11
2018-03-23T10:31:50.033Z,9.25
2018-03-23T10:32:49.991Z,9.10
2018-03-23T10:33:50.012Z,8.99
2018-03-23T10:34:49.948Z,8.99
2018-03-23T10:35:49.921Z,8.97
2018-03-23T10:36:49.888Z,8.95
2018-03-23T10:37:49.994Z,8.89
2018-03-23T10:38:49.845Z,8.85
2018-03-23T10:39:49.887Z,9.06
2018-03-23T10:40:49.788Z,9.14
2018-03-23T10:41:49.765Z,9.16
2018-03-23T10:42:49.755Z,9.36
2018-03-23T10:43:49.784Z,9.39
2018-03-23T10:44:49.756Z,9.46
2018-03-23T10:45:49.731Z,9.48
2018-03-23T10:46:49.628Z,9.59
2018-03-23T10:47:49.601Z,9.62
2018-03-23T10:48:49.634Z,9.59
2018-03-23T10:49:49.554Z,9.65
2018-03-23T10:50:49.525Z,9.62
2018-03-23T10:51:49.494Z,9.74
2018-03-23T10:52:49.475Z,9.62
2018-03-23T10:53:49.444Z,9.83
2018-03-23T10:54:49.426Z,9.98
2018-03-23T10:55:49.399Z,10.05
2018-03-23T10:56:49.371Z,10.05
2018-03-23T10:57:49.351Z,10.05
2018-03-23T10:58:49.315Z,10.16
2018-03-23T10:59:49.286Z,10.15
2018-03-23T11:00:49.270Z,10.19
2018-03-23T11:01:49.241Z,10.13
2018-03-23T11:02:49.219Z,10.22
2018-03-23T11:03:49.216Z,10.12
2018-03-23T11:04:49.162Z,9.87
2018-03-23T11:05:49.146Z,9.83
2018-03-23T11:06:49.110Z,9.82
2018-03-23T11:07:49.088Z,9.82
2018-03-23T11:08:49.063Z,9.64
2018-03-23T11:09:49.044Z,9.76
2018-03-23T11:10:49.010Z,9.87
2018-03-23T11:11:48.983Z,9.95
2018-03-23T11:12:48.966Z,9.80
2018-03-23T11:13:48.934Z,9.87
2018-03-23T11:14:48.915Z,9.91
2018-03-23T11:15:48.886Z,10.01
2018-03-23T11:16:48.857Z,10.02
2018-03-23T11:17:48.825Z,9.99
2018-03-23T11:18:48.833Z,10.05
2018-03-23T11:19:48.864Z,10.13
2018-03-23T11:20:48.764Z,9.97
2018-03-23T11:21:48.745Z,10.05
2018-03-23T11:22:48.735Z,10.10
2018-03-23T11:23:48.678Z,10.12
2018-03-23T11:24:48.653Z,10.02
2018-03-23T11:25:48.673Z,10.09
2018-03-23T11:26:48.637Z,10.10
2018-03-23T11:27:48.572Z,10.13
2018-03-23T11:28:48.560Z,10.09
2018-03-23T11:29:48.529Z,10.02
2018-03-23T11:30:48.500Z,9.97
2018-03-23T11:31:48.487Z,9.91
2018-03-23T11:32:48.441Z,9.76
2018-03-23T11:33:48.429Z,9.68
2018-03-23T11:34:48.401Z,9.55
2018-03-23T11:35:48.366Z,9.40
2018-03-23T11:36:48.344Z,9.58
2018-03-23T11:37:48.315Z,9.44
2018-03-23T11:38:48.292Z,9.43
2018-03-23T11:39:48.289Z,9.51
2018-03-23T11:40:48.237Z,9.54
2018-03-23T11:41:48.214Z,9.61
2018-03-23T11:42:48.279Z,9.56
2018-03-23T11:43:48.174Z,9.61
2018-03-23T11:44:48.203Z,9.66
2018-03-23T11:45:48.160Z,9.55
2018-03-23T11:46:48.090Z,9.56
2018-03-23T11:47:48.056Z,9.51
2018-03-23T11:48:48.077Z,9.56
2018-03-23T11:49:48.003Z,9.56
2018-03-23T11:50:48.048Z,9.76
2018-03-23T11:51:47.962Z,9.84
2018-03-23T11:52:47.971Z,9.80
2018-03-23T11:53:47.913Z,9.92
2018-03-23T11:54:47.905Z,9.94
2018-03-23T11:55:47.858Z,9.69
2018-03-23T11:56:47.824Z,9.54
2018-03-23T11:57:47.804Z,9.56
2018-03-23T11:58:47.767Z,9.59
2018-03-23T11:59:47.746Z,9.61
2018-03-23T12:00:47.722Z,9.61
2018-03-23T12:01:47.858Z,9.62
2018-03-23T12:02:47.679Z,9.64
2018-03-23T12:03:47.650Z,9.66
2018-03-23T12:04:47.613Z,9.62
2018-03-23T12:05:47.598Z,9.64
2018-03-23T12:06:47.565Z,9.59
2018-03-23T12:07:47.544Z,9.65
2018-03-23T12:08:47.515Z,9.66
2018-03-23T12:09:47.491Z,9.51
2018-03-23T12:10:47.522Z,9.44
2018-03-23T12:11:47.444Z,9.28
2018-03-23T12:12:47.406Z,9.10
2018-03-23T12:13:47.444Z,9.04
2018-03-23T12:14:47.360Z,8.97
2018-03-23T12:15:47.323Z,8.79
2018-03-23T12:16:47.313Z,8.89
2018-03-23T12:17:47.282Z,9.00
2018-03-23T12:18:47.252Z,9.02
2018-03-23T12:19:47.229Z,8.97
2018-03-23T12:20:47.200Z,8.97
2018-03-23T12:21:47.171Z,8.78
2018-03-23T12:22:47.151Z,8.84
2018-03-23T12:23:47.126Z,8.71
2018-03-23T12:24:47.101Z,8.74
2018-03-23T12:25:47.085Z,8.74
2018-03-23T12:26:47.046Z,8.66
2018-03-23T12:27:47.012Z,8.66
2018-03-23T12:28:47.016Z,8.60
2018-03-23T12:29:46.999Z,8.60
2018-03-23T12:30:46.949Z,8.66
2018-03-23T12:31:46.964Z,8.73
2018-03-23T12:32:46.898Z,8.71
2018-03-23T12:33:46.921Z,8.70
2018-03-23T12:34:46.862Z,8.66
2018-03-23T12:35:46.871Z,8.58
2018-03-23T12:36:46.794Z,8.66
2018-03-23T12:37:46.810Z,8.69
2018-03-23T12:38:46.774Z,8.63
2018-03-23T12:39:46.703Z,8.67
2018-03-23T12:40:46.684Z,8.69
2018-03-23T12:41:46.648Z,8.61
2018-03-23T12:42:46.624Z,8.58
2018-03-23T12:43:46.604Z,8.55
2018-03-23T12:44:46.626Z,8.52
2018-03-23T12:45:46.546Z,8.56
2018-03-23T12:46:46.627Z,8.58
2018-03-23T12:47:46.489Z,8.42
2018-03-23T12:48:46.471Z,8.42
2018-03-23T12:49:46.428Z,8.34
2018-03-23T12:50:46.432Z,8.52
2018-03-23T12:51:46.374Z,8.37
2018-03-23T12:52:46.354Z,8.49
2018-03-23T12:53:46.351Z,8.44
2018-03-23T12:54:46.339Z,8.42
2018-03-23T12:55:46.285Z,8.44
2018-03-23T12:56:46.251Z,8.56
2018-03-23T12:57:46.336Z,8.51
2018-03-23T12:58:46.195Z,8.51
2018-03-23T12:59:46.172Z,8.56
2018-03-23T13:00:46.147Z,8.58
2018-03-23T13:01:46.208Z,8.66
2018-03-23T13:02:46.101Z,8.76
2018-03-23T13:03:46.121Z,8.66
2018-03-23T13:04:46.085Z,8.74
2018-03-23T13:05:46.022Z,8.79
2018-03-23T13:06:45.984Z,8.79
2018-03-23T13:07:45.959Z,8.85
2018-03-23T13:08:45.928Z,8.85
2018-03-23T13:09:45.906Z,8.73
2018-03-23T13:10:45.942Z,8.73
2018-03-23T13:11:45.866Z,8.67
2018-03-23T13:12:45.893Z,8.63
2018-03-23T13:13:45.913Z,8.63
2018-03-23T13:14:45.780Z,8.63
2018-03-23T13:15:45.850Z,8.63
2018-03-23T13:16:45.760Z,8.63